Time;durP1;ratioP1;P1;durP2;ratioP2;P2;SDS_P1;SDS_P2;PMS_P1;PMS_P2;Temp;Humidity;BMP_temperature;BMP_pressure;BME280_temperature;BME280_humidity;BME280_pressure;Samples;Min_cycle;Max_cycle;Signal;HPM_P1;HPM_P2
2021/08/09 00:01:02;;;;;;;10.77;4.93;;;;;;;-145.71;100.00;60690.53;5031017;28;20790;-81
2021/08/09 00:03:27;;;;;;;12.98;6.15;;;;;;;-145.71;100.00;60690.53;5030530;28;20077;-81
2021/08/09 00:05:53;;;;;;;11.65;5.40;;;;;;;-145.71;100.00;60690.53;5030704;28;20122;-81
2021/08/09 00:08:18;;;;;;;15.63;5.18;;;;;;;-145.71;100.00;60690.53;5036402;28;20112;-82
2021/08/09 00:10:44;;;;;;;10.70;5.80;;;;;;;-145.71;100.00;60690.53;5015623;28;20032;-81
2021/08/09 00:13:09;;;;;;;11.63;5.03;;;;;;;-145.71;100.00;60690.53;5033325;28;20029;-82
2021/08/09 00:15:35;;;;;;;10.68;5.22;;;;;;;-145.71;100.00;60690.53;5032555;28;20033;-81
2021/08/09 00:18:01;;;;;;;18.20;6.95;;;;;;;-145.71;100.00;60690.53;5032319;28;20083;-81
2021/08/09 00:20:26;;;;;;;11.20;5.28;;;;;;;-145.71;100.00;60690.53;5031470;28;20121;-80
2021/08/09 00:22:52;;;;;;;14.23;5.13;;;;;;;-145.71;100.00;60690.53;5030824;28;20053;-80
2021/08/09 00:25:17;;;;;;;14.38;5.40;;;;;;;-145.71;100.00;60690.53;5012412;28;20424;-80
2021/08/09 00:27:43;;;;;;;11.75;5.78;;;;;;;-145.71;100.00;60690.53;5012550;28;20366;-80
2021/08/09 00:30:09;;;;;;;11.13;5.50;;;;;;;-145.71;100.00;60690.53;5030309;28;20075;-80
2021/08/09 00:32:35;;;;;;;10.73;5.35;;;;;;;-145.71;100.00;60690.53;5012536;28;20087;-80
2021/08/09 00:35:01;;;;;;;10.07;4.90;;;;;;;-145.71;100.00;60690.53;5012300;28;20030;-80
2021/08/09 00:37:27;;;;;;;10.82;4.70;;;;;;;-145.71;100.00;60690.53;5012344;28;20370;-81
2021/08/09 00:39:52;;;;;;;10.30;5.15;;;;;;;-145.71;100.00;60690.53;5030277;28;20029;-80
2021/08/09 00:42:17;;;;;;;8.48;4.90;;;;;;;-145.71;100.00;60690.53;5029906;28;20114;-80
2021/08/09 00:44:43;;;;;;;9.80;5.20;;;;;;;-145.71;100.00;60690.53;5035270;28;20037;-81
2021/08/09 00:47:09;;;;;;;10.30;4.80;;;;;;;-145.71;100.00;60690.53;5016975;28;20097;-81
2021/08/09 00:49:34;;;;;;;14.13;5.68;;;;;;;-145.71;100.00;60690.53;5034013;28;20858;-81
2021/08/09 00:52:00;;;;;;;13.40;5.25;;;;;;;-145.71;100.00;60690.53;5033780;28;20025;-81
2021/08/09 00:54:26;;;;;;;10.40;5.55;;;;;;;-145.71;100.00;60690.53;5014872;28;20129;-81
2021/08/09 00:56:52;;;;;;;9.73;4.70;;;;;;;-145.71;100.00;60690.53;5032634;28;20107;-81
2021/08/09 00:59:17;;;;;;;13.10;4.50;;;;;;;-145.71;100.00;60690.53;5014315;28;20068;-80
2021/08/09 01:01:43;;;;;;;13.48;4.85;;;;;;;-145.71;100.00;60690.53;5012491;28;20036;-81
2021/08/09 01:04:10;;;;;;;14.55;5.55;;;;;;;-145.71;100.00;60690.53;5030255;28;20034;-80
2021/08/09 01:06:37;;;;;;;8.95;4.53;;;;;;;-145.71;100.00;60690.53;5030162;28;20036;-80
2021/08/09 01:09:02;;;;;;;10.38;4.95;;;;;;;-145.71;100.00;60690.53;5030052;28;20044;-80
2021/08/09 01:11:55;;;;;;;8.63;5.45;;;;;;;-145.71;100.00;60690.53;5012100;28;20034;-80
2021/08/09 01:14:46;;;;;;;8.52;4.03;;;;;;;-145.71;100.00;60690.53;5029978;28;20106;-80
2021/08/09 01:17:14;;;;;;;8.93;4.40;;;;;;;-145.71;100.00;60690.53;5011938;28;20025;-80
2021/08/09 01:19:44;;;;;;;9.00;4.47;;;;;;;-145.71;100.00;60690.53;5011439;28;20448;-80
2021/08/09 01:22:14;;;;;;;8.95;4.43;;;;;;;-145.71;100.00;60690.53;5033458;28;20029;-81
2021/08/09 01:25:02;;;;;;;9.75;5.32;;;;;;;-145.71;100.00;60690.53;5039262;28;20133;-81
2021/08/09 01:27:30;;;;;;;10.20;4.53;;;;;;;-145.71;100.00;60690.53;5037692;28;20438;-81
2021/08/09 01:30:01;;;;;;;13.68;5.00;;;;;;;-145.71;100.00;60690.53;5035831;28;20034;-80
2021/08/09 01:32:28;;;;;;;10.35;4.90;;;;;;;-145.71;100.00;60690.53;5033644;28;20107;-81
2021/08/09 01:34:54;;;;;;;8.50;4.70;;;;;;;-145.71;100.00;60690.53;5033896;28;20022;-81
2021/08/09 01:37:21;;;;;;;11.18;5.10;;;;;;;-145.71;100.00;60690.53;5033703;28;20029;-81
2021/08/09 01:39:48;;;;;;;7.43;4.63;;;;;;;-145.71;100.00;60690.53;5033805;28;20053;-80
2021/08/09 01:42:15;;;;;;;10.52;4.78;;;;;;;-145.71;100.00;60690.53;5033537;28;20549;-81
2021/08/09 01:44:41;;;;;;;10.25;5.22;;;;;;;-145.71;100.00;60690.53;5015246;28;20471;-81
2021/08/09 01:47:07;;;;;;;7.65;4.97;;;;;;;-145.71;100.00;60690.53;5033010;28;20108;-81
2021/08/09 01:49:32;;;;;;;9.20;4.75;;;;;;;-145.71;100.00;60690.53;5015148;28;20033;-81
2021/08/09 01:52:01;;;;;;;7.93;4.50;;;;;;;-145.71;100.00;60690.53;5015429;28;20068;-82
2021/08/09 01:54:27;;;;;;;9.43;4.70;;;;;;;-145.71;100.00;60690.53;5015122;28;20155;-80
2021/08/09 01:56:52;;;;;;;9.80;4.78;;;;;;;-145.71;100.00;60690.53;5032592;28;20025;-81
2021/08/09 01:59:20;;;;;;;9.55;4.95;;;;;;;-145.71;100.00;60690.53;5032668;28;20125;-81
2021/08/09 02:01:46;;;;;;;10.13;4.43;;;;;;;-145.71;100.00;60690.53;5032698;28;20040;-81
2021/08/09 02:04:11;;;;;;;8.25;4.63;;;;;;;-145.71;100.00;60690.53;5014519;28;20025;-80
2021/08/09 02:06:37;;;;;;;6.88;4.45;;;;;;;-145.71;100.00;60690.53;5037002;28;20093;-82
2021/08/09 02:09:04;;;;;;;9.52;5.35;;;;;;;-145.71;100.00;60690.53;5019443;28;20389;-81
2021/08/09 02:11:39;;;;;;;12.57;5.78;;;;;;;-145.71;100.00;60690.53;5037007;28;20025;-81
2021/08/09 02:14:06;;;;;;;8.98;4.93;;;;;;;-145.71;100.00;60690.53;5035235;28;20021;-81
2021/08/09 02:16:42;;;;;;;14.88;7.25;;;;;;;-145.71;100.00;60690.53;5035610;28;20389;-82
2021/08/09 02:19:07;;;;;;;15.50;6.38;;;;;;;-145.71;100.00;60690.53;5034581;28;20556;-81
2021/08/09 02:21:40;;;;;;;9.20;6.10;;;;;;;-145.71;100.00;60690.53;5033683;28;20043;-81
2021/08/09 02:24:10;;;;;;;9.48;6.70;;;;;;;-145.71;100.00;60690.53;5015296;28;21115;-81
2021/08/09 02:26:44;;;;;;;9.77;6.43;;;;;;;-145.71;100.00;60690.53;5033183;28;20087;-81
2021/08/09 02:29:17;;;;;;;14.20;7.82;;;;;;;-145.71;100.00;60690.53;5015033;28;20025;-81
2021/08/09 02:31:45;;;;;;;16.52;7.53;;;;;;;-145.71;100.00;60690.53;5032339;28;20037;-81
2021/08/09 02:34:13;;;;;;;13.40;7.88;;;;;;;-145.71;100.00;60690.53;5032348;28;20071;-80
2021/08/09 02:36:40;;;;;;;17.25;8.10;;;;;;;-145.71;100.00;60690.53;5032555;28;20128;-81
2021/08/09 02:39:05;;;;;;;15.95;7.25;;;;;;;-145.71;100.00;60690.53;5032847;28;20113;-81
2021/08/09 02:41:31;;;;;;;14.60;7.07;;;;;;;-145.71;100.00;60690.53;5014617;28;20524;-81
2021/08/09 02:43:56;;;;;;;16.30;9.30;;;;;;;-145.71;100.00;60690.53;5032506;28;20385;-81
2021/08/09 02:46:23;;;;;;;10.23;7.07;;;;;;;-145.71;100.00;60690.53;5032426;28;20025;-81
2021/08/09 02:48:49;;;;;;;8.68;7.05;;;;;;;-145.71;100.00;60690.53;5014009;28;20737;-80
2021/08/09 02:51:19;;;;;;;14.23;8.35;;;;;;;-145.71;100.00;60690.53;5032772;28;20091;-80
2021/08/09 02:53:46;;;;;;;17.25;9.77;;;;;;;-145.71;100.00;60690.53;5014678;28;20469;-80
2021/08/09 02:56:12;;;;;;;19.98;9.07;;;;;;;-145.71;100.00;60690.53;5032232;28;20056;-81
2021/08/09 02:58:37;;;;;;;14.15;8.70;;;;;;;-145.71;100.00;60690.53;5014301;28;20029;-80
2021/08/09 03:01:03;;;;;;;17.00;9.43;;;;;;;-145.71;100.00;60690.53;5014129;28;20049;-81
2021/08/09 03:03:31;;;;;;;16.13;8.40;;;;;;;-145.71;100.00;60690.53;5034475;28;20108;-81
2021/08/09 03:05:58;;;;;;;14.10;8.57;;;;;;;-145.71;100.00;60690.53;5038306;28;20087;-81
2021/08/09 03:08:26;;;;;;;11.85;8.13;;;;;;;-145.71;100.00;60690.53;5017061;28;20044;-81
2021/08/09 03:10:52;;;;;;;11.82;7.90;;;;;;;-145.71;100.00;60690.53;5034845;28;20029;-80
2021/08/09 03:13:25;;;;;;;14.80;9.35;;;;;;;-145.71;100.00;60690.53;5035042;28;20369;-81
2021/08/09 03:15:52;;;;;;;9.70;7.05;;;;;;;-145.71;100.00;60690.53;5016022;28;20060;-81
2021/08/09 03:18:18;;;;;;;12.38;8.80;;;;;;;-145.71;100.00;60690.53;5034428;28;20029;-81
2021/08/09 03:20:43;;;;;;;14.88;10.20;;;;;;;-145.71;100.00;60690.53;5033947;28;20082;-81
2021/08/09 03:23:09;;;;;;;12.93;8.35;;;;;;;-145.71;100.00;60690.53;5034160;28;20401;-81
2021/08/09 03:25:35;;;;;;;15.93;9.55;;;;;;;-145.71;100.00;60690.53;5015144;28;20202;-80
2021/08/09 03:28:02;;;;;;;12.07;7.88;;;;;;;-145.71;100.00;60690.53;5033167;28;20444;-81
2021/08/09 03:30:27;;;;;;;14.88;9.00;;;;;;;-145.71;100.00;60690.53;5032927;28;20033;-81
2021/08/09 03:32:54;;;;;;;17.45;9.30;;;;;;;-145.71;100.00;60690.53;5031890;28;20036;-81
2021/08/09 03:35:19;;;;;;;17.48;9.45;;;;;;;-145.71;100.00;60690.53;5014448;28;20167;-81
2021/08/09 03:37:45;;;;;;;20.05;10.52;;;;;;;-145.71;100.00;60690.53;5031932;28;20119;-81
2021/08/09 03:40:10;;;;;;;11.52;8.55;;;;;;;-145.71;100.00;60690.53;5031649;28;20041;-80
2021/08/09 03:42:36;;;;;;;19.88;9.70;;;;;;;-145.71;100.00;60690.53;5031973;28;20033;-80
2021/08/09 03:45:01;;;;;;;18.58;8.93;;;;;;;-145.71;100.00;60690.53;5031115;28;20025;-80
2021/08/09 03:47:27;;;;;;;10.27;8.02;;;;;;;-145.71;100.00;60690.53;5012999;28;20702;-81
2021/08/09 03:49:52;;;;;;;18.08;9.98;;;;;;;-145.71;100.00;60690.53;5012886;28;20499;-81
2021/08/09 03:52:17;;;;;;;14.23;9.32;;;;;;;-145.71;100.00;60690.53;5031080;28;20553;-80
2021/08/09 03:54:43;;;;;;;15.40;8.10;;;;;;;-145.71;100.00;60690.53;5030992;28;20022;-80
2021/08/09 03:57:08;;;;;;;21.80;11.98;;;;;;;-145.71;100.00;60690.53;5030722;28;20030;-80
2021/08/09 03:59:33;;;;;;;18.25;10.80;;;;;;;-145.71;100.00;60690.53;5034988;28;20028;-81
2021/08/09 04:01:59;;;;;;;18.77;9.95;;;;;;;-145.71;100.00;60690.53;5034350;28;20041;-81
2021/08/09 04:04:24;;;;;;;17.77;10.55;;;;;;;-145.71;100.00;60690.53;5015151;28;20033;-81
2021/08/09 04:06:49;;;;;;;21.20;10.57;;;;;;;-145.71;100.00;60690.53;5032938;28;20025;-80
2021/08/09 04:09:15;;;;;;;25.65;12.35;;;;;;;-145.71;100.00;60690.53;5030907;28;20065;-80
2021/08/09 04:11:40;;;;;;;18.67;11.20;;;;;;;-145.71;100.00;60690.53;5012407;28;20029;-80
2021/08/09 04:14:05;;;;;;;16.33;11.18;;;;;;;-145.71;100.00;60690.53;5036452;28;20029;-81
2021/08/09 04:16:31;;;;;;;21.10;9.70;;;;;;;-145.71;100.00;60690.53;5016258;28;20017;-81
2021/08/09 04:18:56;;;;;;;17.58;9.75;;;;;;;-145.71;100.00;60690.53;5033388;28;20488;-81
2021/08/09 04:21:22;;;;;;;19.52;11.00;;;;;;;-145.71;100.00;60690.53;5019675;28;20072;-80
2021/08/09 04:23:48;;;;;;;18.08;9.82;;;;;;;-145.71;100.00;60690.53;4993937;28;20053;-80
2021/08/09 04:26:15;;;;;;;16.98;8.65;;;;;;;-145.71;100.00;60690.53;5008509;28;20029;-81
2021/08/09 04:28:41;;;;;;;19.65;10.02;;;;;;;-145.71;100.00;60690.53;5023960;28;20164;-81
2021/08/09 04:31:07;;;;;;;22.15;9.52;;;;;;;-145.71;100.00;60690.53;5016030;28;20097;-81
2021/08/09 04:33:40;;;;;;;23.10;9.82;;;;;;;-145.71;100.00;60690.53;5015910;28;20100;-81
2021/08/09 04:36:05;;;;;;;14.77;8.02;;;;;;;-145.71;100.00;60690.53;5010222;28;20414;-81
2021/08/09 04:38:30;;;;;;;19.02;9.48;;;;;;;-145.71;100.00;60690.53;4994184;28;20022;-81
2021/08/09 04:40:56;;;;;;;21.38;10.23;;;;;;;-145.71;100.00;60690.53;5011526;28;20040;-80
2021/08/09 04:43:21;;;;;;;18.67;11.00;;;;;;;-145.71;100.00;60690.53;4993277;28;20026;-81
2021/08/09 04:45:48;;;;;;;22.90;10.32;;;;;;;-145.71;100.00;60690.53;5015302;28;20028;-81
2021/08/09 04:48:13;;;;;;;17.48;9.80;;;;;;;-145.71;100.00;60690.53;4990430;28;20025;-80
2021/08/09 04:50:39;;;;;;;21.50;11.13;;;;;;;-145.71;100.00;60690.53;4990090;28;20047;-81
2021/08/09 04:53:07;;;;;;;18.38;10.93;;;;;;;-145.71;100.00;60690.53;5008919;28;20052;-80
2021/08/09 04:55:33;;;;;;;15.35;9.45;;;;;;;-145.71;100.00;60690.53;5023394;28;20097;-81
2021/08/09 04:57:58;;;;;;;17.48;9.50;;;;;;;-145.71;100.00;60690.53;5001336;28;20175;-80
2021/08/09 05:00:23;;;;;;;14.40;9.38;;;;;;;-145.71;100.00;60690.53;5003524;28;20026;-80
2021/08/09 05:02:49;;;;;;;21.13;10.43;;;;;;;-145.71;100.00;60690.53;5028957;28;20076;-80
2021/08/09 05:05:14;;;;;;;19.73;11.05;;;;;;;-145.71;100.00;60690.53;5013083;28;20212;-80
2021/08/09 05:07:39;;;;;;;21.05;10.02;;;;;;;-145.71;100.00;60690.53;5020808;28;20572;-81
2021/08/09 05:10:05;;;;;;;18.80;8.93;;;;;;;-145.71;100.00;60690.53;5010198;28;20040;-81
2021/08/09 05:12:31;;;;;;;17.50;8.98;;;;;;;-145.71;100.00;60690.53;5009609;28;20025;-81
2021/08/09 05:14:56;;;;;;;14.80;10.73;;;;;;;-145.71;100.00;60690.53;4998828;28;20500;-81
2021/08/09 05:17:21;;;;;;;16.95;9.38;;;;;;;-145.71;100.00;60690.53;5017518;28;20033;-81
2021/08/09 05:19:48;;;;;;;23.85;12.50;;;;;;;-145.71;100.00;60690.53;5025383;28;20072;-81
2021/08/09 05:22:13;;;;;;;21.88;11.48;;;;;;;-145.71;100.00;60690.53;5004557;28;20044;-80
2021/08/09 05:24:39;;;;;;;20.95;11.85;;;;;;;-145.71;100.00;60690.53;5006530;28;20054;-82
2021/08/09 05:27:05;;;;;;;17.98;11.05;;;;;;;-145.71;100.00;60690.53;5031560;28;20111;-81
2021/08/09 05:29:30;;;;;;;16.80;9.55;;;;;;;-145.71;100.00;60690.53;5018557;28;20025;-81
2021/08/09 05:31:57;;;;;;;19.65;9.15;;;;;;;-145.71;100.00;60690.53;5025661;28;20708;-81
2021/08/09 05:34:24;;;;;;;18.60;8.80;;;;;;;-145.71;100.00;60690.53;5006689;28;20053;-81
2021/08/09 05:36:49;;;;;;;24.67;10.00;;;;;;;-145.71;100.00;60690.53;5035239;28;20029;-81
2021/08/09 05:39:15;;;;;;;22.15;11.68;;;;;;;-145.71;100.00;60690.53;5017229;28;20037;-81
2021/08/09 05:41:40;;;;;;;25.20;12.48;;;;;;;-145.71;100.00;60690.53;5026762;28;20030;-79
2021/08/09 05:44:05;;;;;;;20.85;10.63;;;;;;;-145.71;100.00;60690.53;5003030;28;20026;-80
2021/08/09 05:46:31;;;;;;;25.33;12.23;;;;;;;-145.71;100.00;60690.53;5018007;28;20029;-81
2021/08/09 05:48:56;;;;;;;21.27;9.93;;;;;;;-145.71;100.00;60690.53;5027160;28;20032;-81
2021/08/09 05:51:21;;;;;;;23.88;10.13;;;;;;;-145.71;100.00;60690.53;4996393;28;20086;-80
2021/08/09 05:53:47;;;;;;;21.20;11.32;;;;;;;-145.71;100.00;60690.53;5030304;28;20025;-79
2021/08/09 05:56:12;;;;;;;17.27;10.20;;;;;;;-145.71;100.00;60690.53;5020613;28;20034;-80
2021/08/09 05:58:37;;;;;;;15.65;9.82;;;;;;;-145.71;100.00;60690.53;5026130;28;20476;-80
2021/08/09 06:01:04;;;;;;;16.13;10.13;;;;;;;-145.71;100.00;60690.53;5017691;28;20084;-81
2021/08/09 06:03:29;;;;;;;21.00;10.98;;;;;;;-145.71;100.00;60690.53;5028279;28;20305;-80
2021/08/09 06:05:55;;;;;;;17.02;10.55;;;;;;;-145.71;100.00;60690.53;4991774;28;20496;-81
2021/08/09 06:08:21;;;;;;;19.65;12.02;;;;;;;-145.71;100.00;60690.53;5008041;28;20052;-81
2021/08/09 06:10:47;;;;;;;26.73;14.68;;;;;;;-145.71;100.00;60690.53;5023396;28;20039;-80
2021/08/09 06:13:13;;;;;;;16.05;9.20;;;;;;;-145.71;100.00;60690.53;5011927;28;20034;-81
2021/08/09 06:15:39;;;;;;;18.58;10.13;;;;;;;-145.71;100.00;60690.53;5023534;28;20487;-81
2021/08/09 06:18:04;;;;;;;25.65;13.48;;;;;;;-145.71;100.00;60690.53;5021571;28;20041;-81
2021/08/09 06:20:29;;;;;;;28.00;13.98;;;;;;;-145.71;100.00;60690.53;5024510;28;20100;-80
2021/08/09 06:22:57;;;;;;;23.35;13.07;;;;;;;-145.71;100.00;60690.53;4997238;28;20136;-81
2021/08/09 06:25:22;;;;;;;22.08;12.35;;;;;;;-145.71;100.00;60690.53;5030750;28;20089;-81
2021/08/09 06:27:49;;;;;;;30.27;15.10;;;;;;;-145.71;100.00;60690.53;4999694;28;20444;-81
2021/08/09 06:30:15;;;;;;;21.63;12.27;;;;;;;-145.71;100.00;60690.53;5019860;28;20482;-81
2021/08/09 06:32:40;;;;;;;16.38;10.13;;;;;;;-145.71;100.00;60690.53;5023603;28;20124;-81
2021/08/09 06:35:06;;;;;;;17.73;11.23;;;;;;;-145.71;100.00;60690.53;4994729;28;20490;-80
2021/08/09 06:37:31;;;;;;;26.40;13.65;;;;;;;-145.71;100.00;60690.53;5024314;28;20113;-80
2021/08/09 06:39:58;;;;;;;30.77;15.95;;;;;;;-145.71;100.00;60690.53;5001512;28;20560;-81
2021/08/09 06:42:23;;;;;;;17.55;12.02;;;;;;;-145.71;100.00;60690.53;5000950;28;20528;-81
2021/08/09 06:44:48;;;;;;;23.77;14.43;;;;;;;-145.71;100.00;60690.53;5007119;28;20029;-81
2021/08/09 06:47:14;;;;;;;24.25;13.63;;;;;;;-145.71;100.00;60690.53;5014907;28;20034;-81
2021/08/09 06:49:39;;;;;;;16.77;10.73;;;;;;;-145.71;100.00;60690.53;5025834;28;20029;-80
2021/08/09 06:52:05;;;;;;;23.98;12.27;;;;;;;-145.71;100.00;60690.53;5002003;28;20067;-81
2021/08/09 06:54:30;;;;;;;18.52;11.82;;;;;;;-145.71;100.00;60690.53;5016833;28;20366;-81
2021/08/09 06:56:56;;;;;;;18.60;10.65;;;;;;;-145.71;100.00;60690.53;5011054;28;20025;-81
2021/08/09 06:59:21;;;;;;;18.23;9.32;;;;;;;-145.71;100.00;60690.53;5010550;28;20049;-81
2021/08/09 07:01:46;;;;;;;19.60;9.70;;;;;;;-145.71;100.00;60690.53;5016999;28;20031;-81
2021/08/09 07:04:12;;;;;;;16.38;9.45;;;;;;;-145.71;100.00;60690.53;5019362;28;20030;-81
2021/08/09 07:06:37;;;;;;;19.02;8.90;;;;;;;-145.71;100.00;60690.53;5026698;28;20033;-81
2021/08/09 07:09:03;;;;;;;14.45;8.25;;;;;;;-145.71;100.00;60690.53;5014252;28;20025;-81
2021/08/09 07:11:29;;;;;;;19.67;9.05;;;;;;;-145.71;100.00;60690.53;5007794;28;20034;-80
2021/08/09 07:13:54;;;;;;;20.65;8.38;;;;;;;-145.71;100.00;60690.53;5018709;28;20065;-81
2021/08/09 07:16:23;;;;;;;17.55;8.27;;;;;;;-145.71;100.00;60690.53;5007720;28;20507;-80
2021/08/09 07:18:49;;;;;;;22.65;8.10;;;;;;;-145.71;100.00;60690.53;5014865;28;20026;-80
2021/08/09 07:21:14;;;;;;;20.40;9.25;;;;;;;-145.71;100.00;60690.53;5025491;28;20035;-80
2021/08/09 07:23:39;;;;;;;25.27;11.50;;;;;;;-145.71;100.00;60690.53;4992465;28;20049;-80
2021/08/09 07:26:05;;;;;;;16.02;7.10;;;;;;;-145.71;100.00;60690.53;4999383;28;20029;-81
2021/08/09 07:28:30;;;;;;;18.75;8.27;;;;;;;-145.71;100.00;60690.53;5000634;28;20029;-81
2021/08/09 07:30:56;;;;;;;23.10;9.18;;;;;;;-145.71;100.00;60690.53;4994023;28;20026;-81
2021/08/09 07:33:21;;;;;;;22.02;8.68;;;;;;;-145.71;100.00;60690.53;5005784;28;20037;-80
2021/08/09 07:35:46;;;;;;;22.88;9.60;;;;;;;-145.71;100.00;60690.53;4995793;28;20033;-81
2021/08/09 07:38:12;;;;;;;25.20;8.15;;;;;;;-145.71;100.00;60690.53;4999113;28;20476;-81
2021/08/09 07:40:37;;;;;;;18.95;8.65;;;;;;;-145.71;100.00;60690.53;5002759;28;20132;-80
2021/08/09 07:43:03;;;;;;;20.70;8.70;;;;;;;-145.71;100.00;60690.53;4989921;28;20041;-81
2021/08/09 07:45:28;;;;;;;22.85;9.90;;;;;;;-145.71;100.00;60690.53;4990005;28;20160;-80
2021/08/09 07:47:54;;;;;;;19.10;9.45;;;;;;;-145.71;100.00;60690.53;5000265;28;20379;-80
2021/08/09 07:50:20;;;;;;;30.08;9.63;;;;;;;-145.71;100.00;60690.53;4997274;28;20468;-80
2021/08/09 07:52:46;;;;;;;24.50;10.23;;;;;;;-145.71;100.00;60690.53;4993139;28;20056;-80
2021/08/09 07:55:12;;;;;;;16.30;8.75;;;;;;;-145.71;100.00;60690.53;5005927;28;20025;-81
2021/08/09 07:57:37;;;;;;;23.35;10.10;;;;;;;-145.71;100.00;60690.53;5009014;28;20037;-80
2021/08/09 08:00:06;;;;;;;29.90;9.27;;;;;;;-145.71;100.00;60690.53;5000989;28;20029;-81
2021/08/09 08:02:31;;;;;;;23.67;8.80;;;;;;;-145.71;100.00;60690.53;5003030;28;20036;-81
2021/08/09 08:04:57;;;;;;;23.88;9.95;;;;;;;-145.71;100.00;60690.53;4992871;28;20027;-81
2021/08/09 08:07:22;;;;;;;21.55;9.23;;;;;;;-145.71;100.00;60690.53;4992803;28;20034;-81
2021/08/09 08:09:51;;;;;;;18.05;8.02;;;;;;;-145.71;100.00;60690.53;5002496;28;20030;-81
2021/08/09 08:12:17;;;;;;;19.25;7.97;;;;;;;-145.71;100.00;60690.53;4997570;28;20559;-81
2021/08/09 08:14:42;;;;;;;25.08;9.52;;;;;;;-145.71;100.00;60690.53;4991476;28;20022;-81
2021/08/09 08:17:08;;;;;;;25.02;7.90;;;;;;;-145.71;100.00;60690.53;4988093;28;20079;-80
2021/08/09 08:19:33;;;;;;;21.45;7.63;;;;;;;-145.71;100.00;60690.53;4993967;28;20029;-80
2021/08/09 08:21:59;;;;;;;21.17;7.70;;;;;;;-145.71;100.00;60690.53;5005777;28;20030;-81
2021/08/09 08:24:27;;;;;;;29.40;7.47;;;;;;;-145.71;100.00;60690.53;5019594;28;20063;-81
2021/08/09 08:26:52;;;;;;;19.40;6.80;;;;;;;-145.71;100.00;60690.53;4996685;28;20804;-80
2021/08/09 08:29:18;;;;;;;24.52;7.90;;;;;;;-145.71;100.00;60690.53;5025804;28;20041;-82
2021/08/09 08:31:43;;;;;;;16.23;6.63;;;;;;;-145.71;100.00;60690.53;5015290;28;20120;-82
2021/08/09 08:34:08;;;;;;;18.55;6.53;;;;;;;-145.71;100.00;60690.53;5018782;28;20035;-81
2021/08/09 08:36:34;;;;;;;17.63;5.88;;;;;;;-145.71;100.00;60690.53;5003370;28;20473;-81
2021/08/09 08:38:59;;;;;;;20.38;6.40;;;;;;;-145.71;100.00;60690.53;5011143;28;20033;-81
2021/08/09 08:41:25;;;;;;;16.17;6.30;;;;;;;-145.71;100.00;60690.53;5023638;28;20030;-81
2021/08/09 08:43:50;;;;;;;17.42;6.35;;;;;;;-145.71;100.00;60690.53;5014330;28;20029;-80
2021/08/09 08:46:16;;;;;;;22.90;6.05;;;;;;;-145.71;100.00;60690.53;5016741;28;20030;-80
2021/08/09 08:48:42;;;;;;;20.38;5.53;;;;;;;-145.71;100.00;60690.53;5022985;28;20029;-81
2021/08/09 08:51:07;;;;;;;19.83;5.75;;;;;;;-145.71;100.00;60690.53;5008157;28;20026;-81
2021/08/09 08:53:35;;;;;;;15.15;5.50;;;;;;;-145.71;100.00;60690.53;5011719;28;20121;-82
2021/08/09 08:56:06;;;;;;;20.20;5.55;;;;;;;-145.71;100.00;60690.53;5011307;28;20775;-82
2021/08/09 08:58:31;;;;;;;15.43;5.43;;;;;;;-145.71;100.00;60690.53;5010548;28;20034;-82
2021/08/09 09:00:56;;;;;;;15.40;6.22;;;;;;;-145.71;100.00;60690.53;5007733;28;20040;-81
2021/08/09 09:03:24;;;;;;;22.42;5.25;;;;;;;-145.71;100.00;60690.53;4994153;28;20616;-81
2021/08/09 09:05:56;;;;;;;24.52;6.97;;;;;;;-145.71;100.00;60690.53;5002744;28;20026;-81
2021/08/09 09:08:45;;;;;;;12.20;5.50;;;;;;;-145.71;100.00;60690.53;4990056;28;20033;-81
2021/08/09 09:11:22;;;;;;;14.10;6.25;;;;;;;-145.71;100.00;60690.53;5005463;28;20030;-81
2021/08/09 09:13:56;;;;;;;18.15;6.50;;;;;;;-145.71;100.00;60690.53;5015581;28;20078;-81
2021/08/09 09:16:22;;;;;;;15.00;6.13;;;;;;;-145.71;100.00;60690.53;4994382;28;20060;-81
2021/08/09 09:18:52;;;;;;;18.70;6.70;;;;;;;-145.71;100.00;60690.53;5005335;28;20037;-80
2021/08/09 09:21:28;;;;;;;21.52;5.88;;;;;;;-145.71;100.00;60690.53;5010994;28;20033;-81
2021/08/09 09:24:05;;;;;;;15.48;5.05;;;;;;;-145.71;100.00;60690.53;5004907;28;20053;-82
2021/08/09 09:26:30;;;;;;;20.42;6.28;;;;;;;-145.71;100.00;60690.53;5010854;28;20393;-81
2021/08/09 09:29:05;;;;;;;13.57;5.03;;;;;;;-145.71;100.00;60690.53;5025741;28;20029;-82
2021/08/09 09:31:31;;;;;;;17.27;4.70;;;;;;;-145.71;100.00;60690.53;5025645;28;20058;-82
2021/08/09 09:33:57;;;;;;;19.77;4.95;;;;;;;-145.71;100.00;60690.53;4999086;28;20049;-82
2021/08/09 09:36:23;;;;;;;16.35;5.15;;;;;;;-145.71;100.00;60690.53;5017389;28;20873;-80
2021/08/09 09:38:53;;;;;;;34.42;5.57;;;;;;;-145.71;100.00;60690.53;5006231;28;20060;-80
2021/08/09 09:41:22;;;;;;;14.05;4.55;;;;;;;-145.71;100.00;60690.53;4995178;28;20055;-81
2021/08/09 09:43:49;;;;;;;16.70;4.25;;;;;;;-145.71;100.00;60690.53;5025051;28;20061;-80
2021/08/09 09:46:28;;;;;;;13.38;4.45;;;;;;;-145.71;100.00;60690.53;5021998;28;20119;-81
2021/08/09 09:48:56;;;;;;;12.65;4.28;;;;;;;-145.71;100.00;60690.53;4997189;28;20030;-81
2021/08/09 09:51:22;;;;;;;18.48;6.78;;;;;;;-145.71;100.00;60690.53;5030454;28;20025;-81
2021/08/09 09:53:50;;;;;;;12.43;4.32;;;;;;;-145.71;100.00;60690.53;5002715;28;20036;-81
2021/08/09 09:56:16;;;;;;;12.10;4.40;;;;;;;-145.71;100.00;60690.53;5022843;28;20037;-81
2021/08/09 09:58:41;;;;;;;14.80;4.32;;;;;;;-145.71;100.00;60690.53;5026526;28;20025;-81
2021/08/09 10:01:09;;;;;;;14.02;4.85;;;;;;;-145.71;100.00;60690.53;5016088;28;20030;-81
2021/08/09 10:03:37;;;;;;;13.35;3.50;;;;;;;-145.71;100.00;60690.53;5027151;28;20531;-81
2021/08/09 10:06:04;;;;;;;13.88;3.70;;;;;;;-145.71;100.00;60690.53;5012578;28;20176;-81
2021/08/09 10:08:33;;;;;;;8.95;3.58;;;;;;;-145.71;100.00;60690.53;5024329;28;20048;-81
2021/08/09 10:11:03;;;;;;;11.82;3.65;;;;;;;-145.71;100.00;60690.53;5030797;28;20052;-81
2021/08/09 10:13:31;;;;;;;13.70;3.60;;;;;;;-145.71;100.00;60690.53;4996886;28;20037;-81
2021/08/09 10:16:01;;;;;;;10.15;3.95;;;;;;;-145.71;100.00;60690.53;5025256;28;20296;-80
2021/08/09 10:18:29;;;;;;;15.32;4.35;;;;;;;-145.71;100.00;60690.53;5017943;28;20500;-80
2021/08/09 10:20:56;;;;;;;18.15;4.65;;;;;;;-145.71;100.00;60690.53;5026310;28;20025;-80
2021/08/09 10:23:40;;;;;;;12.02;3.90;;;;;;;-145.71;100.00;60690.53;5019049;28;20456;-81
2021/08/09 10:26:07;;;;;;;15.75;3.78;;;;;;;-145.71;100.00;60690.53;5033760;28;20107;-82
2021/08/09 10:29:05;;;;;;;28.10;5.88;;;;;;;-145.71;100.00;60690.53;5032487;28;20033;-82
2021/08/09 10:31:35;;;;;;;15.50;4.35;;;;;;;-145.71;100.00;60690.53;4952388;28;20041;-81
2021/08/09 10:34:02;;;;;;;9.27;4.15;;;;;;;-145.71;100.00;60690.53;5005565;28;20021;-81
2021/08/09 10:36:27;;;;;;;13.27;4.80;;;;;;;-145.71;100.00;60690.53;5023049;28;20496;-81
2021/08/09 10:38:55;;;;;;;12.82;4.00;;;;;;;-145.71;100.00;60690.53;5014192;28;20076;-80
2021/08/09 10:41:29;;;;;;;14.07;3.67;;;;;;;-145.71;100.00;60690.53;5026931;28;20733;-81
2021/08/09 10:44:09;;;;;;;11.30;4.18;;;;;;;-145.71;100.00;60690.53;4999902;28;20056;-80
2021/08/09 10:46:44;;;;;;;13.75;3.92;;;;;;;-145.71;100.00;60690.53;5016625;28;20037;-81
2021/08/09 10:49:30;;;;;;;12.10;4.43;;;;;;;-145.71;100.00;60690.53;5008965;28;20029;-81
2021/08/09 10:51:55;;;;;;;12.30;3.90;;;;;;;-145.71;100.00;60690.53;5012865;28;20061;-82
2021/08/09 10:54:35;;;;;;;11.20;3.27;;;;;;;-145.71;100.00;60690.53;4995270;28;20061;-81
2021/08/09 10:57:02;;;;;;;17.00;4.45;;;;;;;-145.71;100.00;60690.53;5029675;28;20816;-81
2021/08/09 10:59:46;;;;;;;16.05;4.30;;;;;;;-145.71;100.00;60690.53;5027157;28;20026;-80
2021/08/09 11:02:28;;;;;;;11.73;4.45;;;;;;;-145.71;100.00;60690.53;5002538;28;20833;-81